createdAt,value
2023-04-26T00:01:14.599Z,9.70
2023-04-26T00:04:16.349Z,9.61
2023-04-26T00:07:18.084Z,9.56
2023-04-26T00:10:19.734Z,9.50
2023-04-26T00:13:21.240Z,9.48
2023-04-26T00:16:22.796Z,9.46
2023-04-26T00:19:24.351Z,9.41
2023-04-26T00:22:25.817Z,9.27
2023-04-26T00:25:27.216Z,9.24
2023-04-26T00:28:31.801Z,9.17
2023-04-26T00:31:33.469Z,9.20
2023-04-26T00:34:36.464Z,9.14
2023-04-26T00:37:37.902Z,9.12
2023-04-26T00:40:39.600Z,9.19
2023-04-26T00:43:41.497Z,9.21
2023-04-26T00:46:43.287Z,9.25
2023-04-26T00:49:45.081Z,9.40
2023-04-26T00:52:47.262Z,9.53
2023-04-26T00:55:49.387Z,9.60
2023-04-26T00:58:51.207Z,9.66
2023-04-26T01:01:53.302Z,9.60
2023-04-26T01:04:54.865Z,9.64
2023-04-26T01:07:56.421Z,9.72
2023-04-26T01:10:59.098Z,9.87
2023-04-26T01:14:01.825Z,9.88
2023-04-26T01:17:03.960Z,9.90
2023-04-26T01:20:06.269Z,11.28
2023-04-26T01:23:11.798Z,11.42
2023-04-26T01:26:13.534Z,11.21
2023-04-26T01:29:17.200Z,11.22
2023-04-26T01:32:18.675Z,11.22
2023-04-26T01:35:20.131Z,11.13
2023-04-26T01:38:22.867Z,11.04
2023-04-26T01:41:24.537Z,10.94
2023-04-26T01:44:27.050Z,10.78
2023-04-26T01:47:28.508Z,10.72
2023-04-26T01:50:30.107Z,10.66
2023-04-26T01:53:31.778Z,10.69
2023-04-26T01:56:33.248Z,10.75
2023-04-26T01:59:36.003Z,10.74
2023-04-26T02:02:37.677Z,10.81
2023-04-26T02:05:39.368Z,10.82
2023-04-26T02:08:40.897Z,10.90
2023-04-26T02:11:42.408Z,10.86
2023-04-26T02:14:43.891Z,11.13
2023-04-26T02:17:45.343Z,11.12
2023-04-26T02:20:46.905Z,11.26
2023-04-26T02:23:48.962Z,11.30
2023-04-26T02:26:51.885Z,11.34
2023-04-26T02:29:53.374Z,11.15
2023-04-26T02:32:55.426Z,11.29
2023-04-26T02:35:57.008Z,11.29
2023-04-26T02:38:59.374Z,11.15
2023-04-26T02:42:01.122Z,11.86
2023-04-26T02:45:02.606Z,11.79
2023-04-26T02:48:04.669Z,11.78
2023-04-26T02:51:06.332Z,11.73
2023-04-26T02:54:08.244Z,11.66
2023-04-26T02:57:09.838Z,11.63
2023-04-26T03:00:14.052Z,11.60
2023-04-26T03:03:16.071Z,11.44
2023-04-26T03:06:19.738Z,11.35
2023-04-26T03:09:22.216Z,10.97
2023-04-26T03:12:23.714Z,10.76
2023-04-26T03:15:25.284Z,10.61
2023-04-26T03:18:26.811Z,10.40
2023-04-26T03:21:28.508Z,10.24
2023-04-26T03:24:30.856Z,9.80
2023-04-26T03:27:32.492Z,9.46
2023-04-26T03:30:35.087Z,9.37
2023-04-26T03:33:36.848Z,9.30
2023-04-26T03:36:39.773Z,9.65
2023-04-26T03:39:41.604Z,9.76
2023-04-26T03:42:44.214Z,9.72
2023-04-26T03:45:49.366Z,9.76
2023-04-26T03:48:51.427Z,9.67
2023-04-26T03:51:53.177Z,9.62
2023-04-26T03:54:54.624Z,9.66
2023-04-26T03:57:56.104Z,9.64
2023-04-26T04:00:58.501Z,9.67
2023-04-26T04:04:00.603Z,9.54
2023-04-26T04:07:03.550Z,9.37
2023-04-26T04:10:05.795Z,9.22
2023-04-26T04:13:09.768Z,9.19
2023-04-26T04:16:12.070Z,9.14
2023-04-26T04:19:13.583Z,8.80
2023-04-26T04:22:15.386Z,8.28
2023-04-26T04:25:17.630Z,8.94
2023-04-26T04:28:19.172Z,9.11
2023-04-26T04:31:21.966Z,9.21
2023-04-26T04:34:26.355Z,9.07
2023-04-26T04:37:29.040Z,9.07
2023-04-26T04:40:30.641Z,9.25
2023-04-26T04:43:33.045Z,9.26
2023-04-26T04:46:34.612Z,9.53
2023-04-26T04:49:37.689Z,9.57
2023-04-26T04:52:39.258Z,9.63
2023-04-26T04:55:41.140Z,9.62
2023-04-26T04:58:43.550Z,9.57
2023-04-26T05:01:45.332Z,9.42
2023-04-26T05:04:49.367Z,9.36
2023-04-26T05:07:51.196Z,9.29
2023-04-26T05:10:53.357Z,11.42
2023-04-26T05:13:55.105Z,12.19
2023-04-26T05:16:57.512Z,12.42
2023-04-26T05:19:59.653Z,12.54
2023-04-26T05:23:01.303Z,12.61
2023-04-26T05:26:06.731Z,12.73
2023-04-26T05:29:31.273Z,12.93
2023-04-26T05:32:43.306Z,13.01
2023-04-26T05:36:04.194Z,13.01
2023-04-26T05:39:06.429Z,13.13
2023-04-26T05:42:07.990Z,13.26
2023-04-26T05:45:10.886Z,13.27
2023-04-26T05:48:13.521Z,13.29
2023-04-26T05:51:15.953Z,13.33
2023-04-26T05:54:17.515Z,13.45
2023-04-26T05:57:19.451Z,13.51
2023-04-26T06:00:23.436Z,13.56
2023-04-26T06:03:27.129Z,13.48
2023-04-26T06:06:28.957Z,14.36
2023-04-26T06:09:33.336Z,14.31
2023-04-26T06:12:34.885Z,14.49
2023-04-26T06:15:36.775Z,14.50
2023-04-26T06:18:38.250Z,14.34
2023-04-26T06:21:41.330Z,14.60
2023-04-26T06:24:43.362Z,14.79
2023-04-26T06:27:44.931Z,13.57
2023-04-26T06:30:46.581Z,13.20
2023-04-26T06:33:49.488Z,13.19
2023-04-26T06:36:51.293Z,13.24
2023-04-26T06:39:53.819Z,13.26
2023-04-26T06:42:57.156Z,13.02
2023-04-26T06:46:11.529Z,12.68
2023-04-26T06:49:14.112Z,12.30
2023-04-26T06:52:15.968Z,12.28
2023-04-26T06:55:17.625Z,12.32
2023-04-26T06:58:19.143Z,12.34
2023-04-26T07:01:20.652Z,12.41
2023-04-26T07:04:22.476Z,12.49
2023-04-26T07:07:24.031Z,12.84
2023-04-26T07:10:26.231Z,12.98
2023-04-26T07:13:27.838Z,13.08
2023-04-26T07:16:29.626Z,13.17
2023-04-26T07:19:31.392Z,13.26
2023-04-26T07:22:32.975Z,13.32
2023-04-26T07:25:34.391Z,13.26
2023-04-26T07:28:35.882Z,13.36
2023-04-26T07:31:37.448Z,13.23
2023-04-26T07:34:38.906Z,13.42
2023-04-26T07:37:40.380Z,13.61
2023-04-26T07:40:43.199Z,13.60
2023-04-26T07:43:44.709Z,13.67
2023-04-26T07:46:46.394Z,15.33
2023-04-26T07:49:53.521Z,16.06
2023-04-26T07:52:54.939Z,15.89
2023-04-26T07:55:56.409Z,16.44
2023-04-26T07:58:57.970Z,16.00
2023-04-26T08:01:59.625Z,15.80
2023-04-26T08:05:01.466Z,15.90
2023-04-26T08:08:03.033Z,16.18
2023-04-26T08:11:07.583Z,16.39
2023-04-26T08:14:09.139Z,16.27
2023-04-26T08:17:10.927Z,16.98
2023-04-26T08:20:12.997Z,16.59
2023-04-26T08:23:14.763Z,16.79
2023-04-26T08:26:16.297Z,16.43
2023-04-26T08:29:19.005Z,16.51
2023-04-26T08:32:20.500Z,16.80
2023-04-26T08:35:22.266Z,17.05
2023-04-26T08:38:24.628Z,16.79
2023-04-26T08:41:26.399Z,16.78
2023-04-26T08:44:29.253Z,16.75
2023-04-26T08:47:42.065Z,16.95
2023-04-26T08:50:45.972Z,16.55
2023-04-26T08:53:49.495Z,16.86
2023-04-26T08:56:51.751Z,16.37
2023-04-26T08:59:53.635Z,16.36
2023-04-26T09:02:55.658Z,16.35
2023-04-26T09:05:57.957Z,16.69
2023-04-26T09:09:02.384Z,16.97
2023-04-26T09:12:04.333Z,16.99
2023-04-26T09:15:09.522Z,17.30
2023-04-26T09:18:19.350Z,17.36
2023-04-26T09:21:20.927Z,17.22
2023-04-26T09:24:22.442Z,16.64
2023-04-26T09:27:36.201Z,16.51
2023-04-26T09:30:39.799Z,16.32
2023-04-26T09:33:58.309Z,16.09
2023-04-26T09:36:59.757Z,18.97
2023-04-26T09:40:01.383Z,19.59
2023-04-26T09:43:05.251Z,19.08
2023-04-26T09:46:07.105Z,19.38
2023-04-26T09:49:08.614Z,19.71
2023-04-26T09:52:10.358Z,19.49
2023-04-26T09:55:34.834Z,19.59
2023-04-26T09:58:39.046Z,19.77
2023-04-26T10:01:40.691Z,20.00
2023-04-26T10:04:46.216Z,19.94
2023-04-26T10:07:48.989Z,20.04
2023-04-26T10:10:51.370Z,20.24
2023-04-26T10:13:52.878Z,20.12
2023-04-26T10:16:55.119Z,20.20
2023-04-26T10:19:58.904Z,19.08
2023-04-26T10:23:01.948Z,18.70
2023-04-26T10:26:03.693Z,18.12
2023-04-26T10:29:05.390Z,21.04
2023-04-26T10:32:09.374Z,19.11
2023-04-26T10:35:12.597Z,18.91
2023-04-26T10:38:14.069Z,18.67
2023-04-26T10:41:33.208Z,18.68
2023-04-26T10:44:44.950Z,18.41
2023-04-26T10:47:47.020Z,18.41
2023-04-26T10:51:12.184Z,18.24
2023-04-26T10:54:13.934Z,18.38
2023-04-26T10:57:15.914Z,18.36
2023-04-26T11:00:21.007Z,18.19
2023-04-26T11:03:23.230Z,18.24
2023-04-26T11:06:25.564Z,18.71
2023-04-26T11:09:40.845Z,18.99
2023-04-26T11:12:42.465Z,18.88
2023-04-26T11:15:44.062Z,18.59
2023-04-26T11:18:47.295Z,18.44
2023-04-26T11:21:48.925Z,18.54
2023-04-26T11:24:50.373Z,18.90
2023-04-26T11:27:51.872Z,18.63
2023-04-26T11:30:54.029Z,18.80
2023-04-26T11:34:01.121Z,18.58
2023-04-26T11:37:04.609Z,19.02
2023-04-26T11:40:07.863Z,19.17
2023-04-26T11:43:11.685Z,19.77
2023-04-26T11:46:13.265Z,19.55
2023-04-26T11:49:16.302Z,18.82
2023-04-26T11:52:18.474Z,18.95
2023-04-26T11:55:25.553Z,19.47
2023-04-26T11:58:27.387Z,19.49
2023-04-26T12:01:30.063Z,19.49
2023-04-26T12:04:31.883Z,19.37
2023-04-26T12:07:39.731Z,19.87
2023-04-26T12:10:41.229Z,20.27
2023-04-26T12:13:42.698Z,20.29
2023-04-26T12:16:44.278Z,20.38
2023-04-26T12:19:50.125Z,20.45
2023-04-26T12:23:08.700Z,20.81
2023-04-26T12:26:12.008Z,21.08
2023-04-26T12:29:13.503Z,20.85
2023-04-26T12:32:14.947Z,20.32
2023-04-26T12:35:16.543Z,20.45
2023-04-26T12:38:18.983Z,20.09
2023-04-26T12:41:20.706Z,20.50
2023-04-26T12:44:22.805Z,20.71
2023-04-26T12:47:24.599Z,20.78
2023-04-26T12:50:26.199Z,21.00
2023-04-26T12:53:27.707Z,21.28
2023-04-26T12:56:29.856Z,20.55
2023-04-26T12:59:31.417Z,20.61
2023-04-26T13:02:33.813Z,21.20
2023-04-26T13:05:35.472Z,21.38
2023-04-26T13:08:36.945Z,20.96
2023-04-26T13:11:38.509Z,21.17
2023-04-26T13:14:40.906Z,21.14
2023-04-26T13:17:44.370Z,20.63
2023-04-26T13:20:45.905Z,20.21
2023-04-26T13:23:47.418Z,20.14
2023-04-26T13:26:48.960Z,19.95
2023-04-26T13:29:51.830Z,19.69
2023-04-26T13:32:53.463Z,19.75
2023-04-26T13:35:55.030Z,19.79
2023-04-26T13:38:56.482Z,19.54
2023-04-26T13:41:59.410Z,19.34
2023-04-26T13:45:06.120Z,19.52
2023-04-26T13:48:07.691Z,19.56
2023-04-26T13:51:09.243Z,20.38
2023-04-26T13:54:11.617Z,20.61
2023-04-26T13:57:13.276Z,20.55
2023-04-26T14:00:15.506Z,20.35
2023-04-26T14:03:17.214Z,20.23
2023-04-26T14:06:19.250Z,20.12
2023-04-26T14:09:20.952Z,20.23
2023-04-26T14:12:22.456Z,20.79
2023-04-26T14:15:23.935Z,20.51
2023-04-26T14:18:25.377Z,20.50
2023-04-26T14:21:26.956Z,20.76
2023-04-26T14:24:28.480Z,20.77
2023-04-26T14:27:30.214Z,20.91
2023-04-26T14:30:31.684Z,20.72
2023-04-26T14:33:33.177Z,20.16
2023-04-26T14:36:35.850Z,20.60
2023-04-26T14:39:37.676Z,20.89
2023-04-26T14:42:45.540Z,20.39
2023-04-26T14:45:47.231Z,19.99
2023-04-26T14:48:48.748Z,20.14
2023-04-26T14:51:52.984Z,20.45
2023-04-26T14:54:55.096Z,21.08
2023-04-26T14:57:56.563Z,21.35
2023-04-26T15:00:58.056Z,21.59
2023-04-26T15:04:00.955Z,21.28
2023-04-26T15:07:03.875Z,21.02
2023-04-26T15:10:07.669Z,20.88
2023-04-26T15:13:09.263Z,21.19
2023-04-26T15:16:10.856Z,21.02
2023-04-26T15:19:12.348Z,21.05
2023-04-26T15:22:13.833Z,21.08
2023-04-26T15:25:15.340Z,20.93
2023-04-26T15:28:17.831Z,21.18
2023-04-26T15:31:20.760Z,21.48
2023-04-26T15:34:25.184Z,21.82
2023-04-26T15:37:26.608Z,21.78
2023-04-26T15:40:28.197Z,21.45
2023-04-26T15:43:29.648Z,21.36
2023-04-26T15:46:31.166Z,21.78
2023-04-26T15:49:32.675Z,21.91
2023-04-26T15:52:38.607Z,21.51
2023-04-26T15:55:41.553Z,21.43
2023-04-26T15:58:47.113Z,21.95
2023-04-26T16:01:48.676Z,21.89
2023-04-26T16:04:50.367Z,21.80
2023-04-26T16:07:51.981Z,21.49
2023-04-26T16:10:53.549Z,21.78
2023-04-26T16:13:54.976Z,22.28
2023-04-26T16:16:57.831Z,21.07
2023-04-26T16:20:00.541Z,20.09
2023-04-26T16:23:02.123Z,19.56
2023-04-26T16:26:03.691Z,19.59
2023-04-26T16:29:05.250Z,19.49
2023-04-26T16:32:06.794Z,19.30
2023-04-26T16:35:09.064Z,19.55
2023-04-26T16:38:10.843Z,19.66
2023-04-26T16:41:12.289Z,19.44
2023-04-26T16:44:13.845Z,19.48
2023-04-26T16:47:15.290Z,19.79
2023-04-26T16:50:16.836Z,19.86
2023-04-26T16:53:18.768Z,19.54
2023-04-26T16:56:20.836Z,19.62
2023-04-26T16:59:22.637Z,19.55
2023-04-26T17:02:24.218Z,19.78
2023-04-26T17:05:25.841Z,19.63
2023-04-26T17:08:27.343Z,19.12
2023-04-26T17:11:29.396Z,19.03
2023-04-26T17:14:32.371Z,18.84
2023-04-26T17:17:33.965Z,18.93
2023-04-26T17:20:36.037Z,19.01
2023-04-26T17:23:37.506Z,19.11
2023-04-26T17:26:38.989Z,19.58
2023-04-26T17:29:40.493Z,21.64
2023-04-26T17:32:42.151Z,22.70
2023-04-26T17:35:43.709Z,22.11
2023-04-26T17:38:45.830Z,21.40
2023-04-26T17:41:47.367Z,20.82
2023-04-26T17:44:48.936Z,22.25
2023-04-26T17:47:50.501Z,23.73
2023-04-26T17:50:52.898Z,22.99
2023-04-26T17:53:54.462Z,22.03
2023-04-26T17:56:56.098Z,20.72
2023-04-26T17:59:57.555Z,20.14
2023-04-26T18:03:02.732Z,20.12
2023-04-26T18:06:04.635Z,20.21
2023-04-26T18:09:06.088Z,19.42
2023-04-26T18:12:08.193Z,18.15
2023-04-26T18:15:09.729Z,17.41
2023-04-26T18:18:11.282Z,17.00
2023-04-26T18:21:13.017Z,16.74
2023-04-26T18:24:14.487Z,16.52
2023-04-26T18:27:16.255Z,16.23
2023-04-26T18:30:18.297Z,15.96
2023-04-26T18:33:19.915Z,15.74
2023-04-26T18:36:21.556Z,15.67
2023-04-26T18:39:23.016Z,15.52
2023-04-26T18:42:24.553Z,15.49
2023-04-26T18:45:26.026Z,15.38
2023-04-26T18:48:27.665Z,15.28
2023-04-26T18:51:29.575Z,15.17
2023-04-26T18:54:33.042Z,15.12
2023-04-26T18:57:34.511Z,15.09
2023-04-26T19:00:36.525Z,14.89
2023-04-26T19:03:38.133Z,14.82
2023-04-26T19:06:42.904Z,14.71
2023-04-26T19:09:53.642Z,14.61
2023-04-26T19:12:55.895Z,14.66
2023-04-26T19:15:57.347Z,14.67
2023-04-26T19:18:58.796Z,14.70
2023-04-26T19:22:01.043Z,14.69
2023-04-26T19:25:02.721Z,14.69
2023-04-26T19:28:04.464Z,14.56
2023-04-26T19:31:06.017Z,14.39
2023-04-26T19:34:07.491Z,14.31
2023-04-26T19:37:09.375Z,14.32
2023-04-26T19:40:11.939Z,14.32
2023-04-26T19:43:13.775Z,14.31
2023-04-26T19:46:15.531Z,14.21
2023-04-26T19:49:17.223Z,14.16
2023-04-26T19:52:18.677Z,14.12
2023-04-26T19:55:20.414Z,14.13
2023-04-26T19:58:21.906Z,14.04
2023-04-26T20:01:23.692Z,14.00
2023-04-26T20:04:25.262Z,13.95
2023-04-26T20:07:27.608Z,13.91
2023-04-26T20:10:33.935Z,13.87
2023-04-26T20:13:35.930Z,13.77
2023-04-26T20:16:37.508Z,13.76
2023-04-26T20:19:39.314Z,13.76
2023-04-26T20:22:41.149Z,13.74
2023-04-26T20:25:42.702Z,13.67
2023-04-26T20:28:45.322Z,13.70
2023-04-26T20:31:46.886Z,13.75
2023-04-26T20:34:48.336Z,13.70
2023-04-26T20:37:50.447Z,13.58
2023-04-26T20:40:51.876Z,13.57
2023-04-26T20:43:53.424Z,13.52
2023-04-26T20:46:54.900Z,13.47
2023-04-26T20:49:56.591Z,13.44
2023-04-26T20:52:58.167Z,13.38
2023-04-26T20:55:59.606Z,13.36
2023-04-26T20:59:01.674Z,13.31
2023-04-26T21:02:03.384Z,13.26
2023-04-26T21:05:06.136Z,16.83
2023-04-26T21:08:07.588Z,16.92
2023-04-26T21:11:09.183Z,16.95
2023-04-26T21:14:10.905Z,16.84
2023-04-26T21:17:12.336Z,16.83
2023-04-26T21:20:13.999Z,16.88
2023-04-26T21:23:15.474Z,16.90
2023-04-26T21:26:16.916Z,16.87
2023-04-26T21:29:18.425Z,16.80
2023-04-26T21:32:19.968Z,16.76
2023-04-26T21:35:21.702Z,16.64
2023-04-26T21:38:23.219Z,16.68
2023-04-26T21:41:25.800Z,16.60
2023-04-26T21:44:27.340Z,16.70
2023-04-26T21:47:28.945Z,16.71
2023-04-26T21:50:30.669Z,16.76
2023-04-26T21:53:32.137Z,16.78
2023-04-26T21:56:33.901Z,16.84
2023-04-26T21:59:36.420Z,16.84
2023-04-26T22:02:39.006Z,16.81
2023-04-26T22:05:40.962Z,16.78
2023-04-26T22:08:42.520Z,16.84
2023-04-26T22:11:44.145Z,16.92
2023-04-26T22:14:45.698Z,16.88
2023-04-26T22:17:47.249Z,16.84
2023-04-26T22:20:48.804Z,16.81
2023-04-26T22:23:50.397Z,16.78
2023-04-26T22:26:52.031Z,16.77
2023-04-26T22:29:53.563Z,16.74
2023-04-26T22:32:57.368Z,16.69
2023-04-26T22:35:59.538Z,16.71
2023-04-26T22:39:01.435Z,16.72
2023-04-26T22:42:03.123Z,16.73
2023-04-26T22:45:05.051Z,16.75
2023-04-26T22:48:06.889Z,16.73
2023-04-26T22:51:08.492Z,16.74
2023-04-26T22:54:10.093Z,16.68
2023-04-26T22:57:11.645Z,16.70
2023-04-26T23:00:14.673Z,16.77
2023-04-26T23:03:16.478Z,16.82
2023-04-26T23:06:18.133Z,16.82
2023-04-26T23:09:19.793Z,16.80
2023-04-26T23:12:21.320Z,16.84
2023-04-26T23:15:23.624Z,16.82
2023-04-26T23:18:26.667Z,16.81
2023-04-26T23:21:28.318Z,16.73
2023-04-26T23:24:29.880Z,16.70
2023-04-26T23:27:31.436Z,16.72
2023-04-26T23:30:32.981Z,16.65
2023-04-26T23:33:34.501Z,16.72
2023-04-26T23:36:36.028Z,16.79
2023-04-26T23:39:37.581Z,16.79
2023-04-26T23:42:39.235Z,16.73
2023-04-26T23:45:47.215Z,16.70
2023-04-26T23:48:48.800Z,16.70
2023-04-26T23:51:50.404Z,16.72
2023-04-26T23:54:51.945Z,16.71
2023-04-26T23:57:53.412Z,16.52
